sensor_id;sensor_type;location;lat;lon;timestamp;temperature;humidity
20815;DHT22;10568;48.176;16.316;2023-09-19T00:01:33;19.70;99.90
20815;DHT22;10568;48.176;16.316;2023-09-19T00:04:00;19.50;99.90
20815;DHT22;10568;48.176;16.316;2023-09-19T00:06:29;19.40;99.90
20815;DHT22;10568;48.176;16.316;2023-09-19T00:08:57;19.30;99.90
20815;DHT22;10568;48.176;16.316;2023-09-19T00:11:24;19.10;99.90
20815;DHT22;10568;48.176;16.316;2023-09-19T00:13:51;19.00;99.90
20815;DHT22;10568;48.176;16.316;2023-09-19T00:16:17;18.90;99.90
20815;DHT22;10568;48.176;16.316;2023-09-19T00:18:45;18.70;99.90
20815;DHT22;10568;48.176;16.316;2023-09-19T00:21:11;18.60;99.90
20815;DHT22;10568;48.176;16.316;2023-09-19T00:23:38;18.50;99.90
20815;DHT22;10568;48.176;16.316;2023-09-19T00:26:03;18.40;99.90
20815;DHT22;10568;48.176;16.316;2023-09-19T00:28:30;18.30;99.90
20815;DHT22;10568;48.176;16.316;2023-09-19T00:30:57;18.20;99.90
20815;DHT22;10568;48.176;16.316;2023-09-19T00:33:27;18.20;99.90
20815;DHT22;10568;48.176;16.316;2023-09-19T00:35:56;18.10;99.90
20815;DHT22;10568;48.176;16.316;2023-09-19T00:38:23;18.00;99.90
20815;DHT22;10568;48.176;16.316;2023-09-19T00:40:53;18.00;99.90
20815;DHT22;10568;48.176;16.316;2023-09-19T00:43:22;17.90;99.90
20815;DHT22;10568;48.176;16.316;2023-09-19T00:45:51;17.90;99.90
20815;DHT22;10568;48.176;16.316;2023-09-19T00:48:20;17.80;99.90
20815;DHT22;10568;48.176;16.316;2023-09-19T00:50:47;17.70;99.90
20815;DHT22;10568;48.176;16.316;2023-09-19T00:53:17;17.70;99.90
20815;DHT22;10568;48.176;16.316;2023-09-19T00:55:45;17.70;99.90
20815;DHT22;10568;48.176;16.316;2023-09-19T00:58:11;17.70;99.90
20815;DHT22;10568;48.176;16.316;2023-09-19T01:00:37;17.70;99.90
20815;DHT22;10568;48.176;16.316;2023-09-19T01:03:05;17.70;99.90
20815;DHT22;10568;48.176;16.316;2023-09-19T01:05:33;17.60;99.90
20815;DHT22;10568;48.176;16.316;2023-09-19T01:07:59;17.70;99.90
20815;DHT22;10568;48.176;16.316;2023-09-19T01:10:25;17.60;99.90
20815;DHT22;10568;48.176;16.316;2023-09-19T01:13:15;17.60;99.90
20815;DHT22;10568;48.176;16.316;2023-09-19T01:21:37;17.40;99.90
20815;DHT22;10568;48.176;16.316;2023-09-19T01:29:48;17.40;99.90
20815;DHT22;10568;48.176;16.316;2023-09-19T01:32:17;17.40;99.90
20815;DHT22;10568;48.176;16.316;2023-09-19T01:34:48;17.30;99.90
20815;DHT22;10568;48.176;16.316;2023-09-19T01:37:16;17.30;99.90
20815;DHT22;10568;48.176;16.316;2023-09-19T01:39:52;17.20;99.90
20815;DHT22;10568;48.176;16.316;2023-09-19T01:47:52;17.10;99.90
20815;DHT22;10568;48.176;16.316;2023-09-19T01:50:31;17.00;99.90
20815;DHT22;10568;48.176;16.316;2023-09-19T01:53:14;17.00;99.90
20815;DHT22;10568;48.176;16.316;2023-09-19T01:55:48;16.90;99.90
20815;DHT22;10568;48.176;16.316;2023-09-19T02:00:49;16.90;99.90
20815;DHT22;10568;48.176;16.316;2023-09-19T02:03:20;16.90;99.90
20815;DHT22;10568;48.176;16.316;2023-09-19T02:05:52;16.80;99.90
20815;DHT22;10568;48.176;16.316;2023-09-19T02:08:20;16.70;99.90
20815;DHT22;10568;48.176;16.316;2023-09-19T02:10:47;16.70;99.90
20815;DHT22;10568;48.176;16.316;2023-09-19T02:13:18;16.70;99.90
20815;DHT22;10568;48.176;16.316;2023-09-19T02:15:45;16.70;99.90
20815;DHT22;10568;48.176;16.316;2023-09-19T02:18:12;16.70;99.90
20815;DHT22;10568;48.176;16.316;2023-09-19T02:20:39;16.70;99.90
20815;DHT22;10568;48.176;16.316;2023-09-19T02:23:05;16.70;99.90
20815;DHT22;10568;48.176;16.316;2023-09-19T02:25:31;16.70;99.90
20815;DHT22;10568;48.176;16.316;2023-09-19T02:27:57;16.70;99.90
20815;DHT22;10568;48.176;16.316;2023-09-19T02:30:27;16.70;99.90
20815;DHT22;10568;48.176;16.316;2023-09-19T02:32:52;16.70;99.90
20815;DHT22;10568;48.176;16.316;2023-09-19T02:35:18;16.70;99.90
20815;DHT22;10568;48.176;16.316;2023-09-19T02:37:48;16.70;99.90
20815;DHT22;10568;48.176;16.316;2023-09-19T02:40:15;16.70;99.90
20815;DHT22;10568;48.176;16.316;2023-09-19T02:42:55;16.70;99.90
20815;DHT22;10568;48.176;16.316;2023-09-19T02:45:21;16.70;99.90
20815;DHT22;10568;48.176;16.316;2023-09-19T02:47:48;16.70;99.90
20815;DHT22;10568;48.176;16.316;2023-09-19T02:50:14;16.80;99.90
20815;DHT22;10568;48.176;16.316;2023-09-19T02:52:51;16.80;99.90
20815;DHT22;10568;48.176;16.316;2023-09-19T02:55:18;16.80;99.90
20815;DHT22;10568;48.176;16.316;2023-09-19T02:57:54;16.80;99.90
20815;DHT22;10568;48.176;16.316;2023-09-19T03:00:21;16.80;99.90
20815;DHT22;10568;48.176;16.316;2023-09-19T03:02:54;16.90;99.90
20815;DHT22;10568;48.176;16.316;2023-09-19T03:05:21;16.90;99.90
20815;DHT22;10568;48.176;16.316;2023-09-19T03:07:49;16.90;99.90
20815;DHT22;10568;48.176;16.316;2023-09-19T03:10:19;16.90;99.90
20815;DHT22;10568;48.176;16.316;2023-09-19T03:12:45;16.80;99.90
20815;DHT22;10568;48.176;16.316;2023-09-19T03:15:11;16.90;99.90
20815;DHT22;10568;48.176;16.316;2023-09-19T03:17:37;16.90;99.90
20815;DHT22;10568;48.176;16.316;2023-09-19T03:20:03;16.90;99.90
20815;DHT22;10568;48.176;16.316;2023-09-19T03:22:30;16.90;99.90
20815;DHT22;10568;48.176;16.316;2023-09-19T03:24:55;16.90;99.90
20815;DHT22;10568;48.176;16.316;2023-09-19T03:27:21;17.00;99.90
20815;DHT22;10568;48.176;16.316;2023-09-19T03:29:48;17.00;99.90
20815;DHT22;10568;48.176;16.316;2023-09-19T03:32:14;16.90;99.90
20815;DHT22;10568;48.176;16.316;2023-09-19T03:34:40;16.90;99.90
20815;DHT22;10568;48.176;16.316;2023-09-19T03:37:09;16.90;99.90
20815;DHT22;10568;48.176;16.316;2023-09-19T03:39:35;16.90;99.90
20815;DHT22;10568;48.176;16.316;2023-09-19T03:42:02;17.00;99.90
20815;DHT22;10568;48.176;16.316;2023-09-19T03:44:30;17.00;99.90
20815;DHT22;10568;48.176;16.316;2023-09-19T03:46:56;17.00;99.90
20815;DHT22;10568;48.176;16.316;2023-09-19T03:49:22;17.00;99.90
20815;DHT22;10568;48.176;16.316;2023-09-19T03:51:48;16.90;99.90
20815;DHT22;10568;48.176;16.316;2023-09-19T03:54:14;16.90;99.90
20815;DHT22;10568;48.176;16.316;2023-09-19T03:56:40;17.00;99.90
20815;DHT22;10568;48.176;16.316;2023-09-19T03:59:05;17.00;99.90
20815;DHT22;10568;48.176;16.316;2023-09-19T04:01:31;17.00;99.90
20815;DHT22;10568;48.176;16.316;2023-09-19T04:03:59;17.00;99.90
20815;DHT22;10568;48.176;16.316;2023-09-19T04:06:36;17.00;99.90
20815;DHT22;10568;48.176;16.316;2023-09-19T04:09:03;17.00;99.90
20815;DHT22;10568;48.176;16.316;2023-09-19T04:11:29;17.00;99.90
20815;DHT22;10568;48.176;16.316;2023-09-19T04:14:05;17.10;99.90
20815;DHT22;10568;48.176;16.316;2023-09-19T04:16:34;17.10;99.90
20815;DHT22;10568;48.176;16.316;2023-09-19T04:18:59;17.00;99.90
20815;DHT22;10568;48.176;16.316;2023-09-19T04:21:25;17.00;99.90
20815;DHT22;10568;48.176;16.316;2023-09-19T04:23:52;17.00;99.90
20815;DHT22;10568;48.176;16.316;2023-09-19T04:26:17;17.00;99.90
20815;DHT22;10568;48.176;16.316;2023-09-19T04:28:43;17.00;99.90
20815;DHT22;10568;48.176;16.316;2023-09-19T04:31:09;17.00;99.90
20815;DHT22;10568;48.176;16.316;2023-09-19T04:33:35;17.00;99.90
20815;DHT22;10568;48.176;16.316;2023-09-19T04:36:02;17.00;99.90
20815;DHT22;10568;48.176;16.316;2023-09-19T04:38:30;17.00;99.90
20815;DHT22;10568;48.176;16.316;2023-09-19T04:40:59;17.00;99.90
20815;DHT22;10568;48.176;16.316;2023-09-19T04:43:25;17.00;99.90
20815;DHT22;10568;48.176;16.316;2023-09-19T04:45:51;16.90;99.90
20815;DHT22;10568;48.176;16.316;2023-09-19T04:51:43;16.90;99.90
20815;DHT22;10568;48.176;16.316;2023-09-19T04:54:09;16.90;99.90
20815;DHT22;10568;48.176;16.316;2023-09-19T04:56:35;16.90;99.90
20815;DHT22;10568;48.176;16.316;2023-09-19T04:59:01;16.80;99.90
20815;DHT22;10568;48.176;16.316;2023-09-19T05:01:26;16.90;99.90
20815;DHT22;10568;48.176;16.316;2023-09-19T05:03:52;16.80;99.90
20815;DHT22;10568;48.176;16.316;2023-09-19T05:06:21;16.80;99.90
20815;DHT22;10568;48.176;16.316;2023-09-19T05:08:50;16.80;99.90
20815;DHT22;10568;48.176;16.316;2023-09-19T05:11:19;16.80;99.90
20815;DHT22;10568;48.176;16.316;2023-09-19T05:13:48;16.80;99.90
20815;DHT22;10568;48.176;16.316;2023-09-19T05:16:18;16.80;99.90
20815;DHT22;10568;48.176;16.316;2023-09-19T05:18:44;16.80;99.90
20815;DHT22;10568;48.176;16.316;2023-09-19T05:21:10;16.70;99.90
20815;DHT22;10568;48.176;16.316;2023-09-19T05:23:36;16.70;99.90
20815;DHT22;10568;48.176;16.316;2023-09-19T05:26:02;16.70;99.90
20815;DHT22;10568;48.176;16.316;2023-09-19T05:28:29;16.60;99.90
20815;DHT22;10568;48.176;16.316;2023-09-19T05:30:55;16.60;99.90
20815;DHT22;10568;48.176;16.316;2023-09-19T05:33:20;16.60;99.90
20815;DHT22;10568;48.176;16.316;2023-09-19T05:35:48;16.60;99.90
20815;DHT22;10568;48.176;16.316;2023-09-19T05:38:14;16.60;99.90
20815;DHT22;10568;48.176;16.316;2023-09-19T05:40:41;16.60;99.90
20815;DHT22;10568;48.176;16.316;2023-09-19T05:43:08;16.60;99.90
20815;DHT22;10568;48.176;16.316;2023-09-19T05:45:34;16.60;99.90
20815;DHT22;10568;48.176;16.316;2023-09-19T05:48:11;16.60;99.90
20815;DHT22;10568;48.176;16.316;2023-09-19T05:50:39;16.60;99.90
20815;DHT22;10568;48.176;16.316;2023-09-19T05:53:05;16.60;99.90
20815;DHT22;10568;48.176;16.316;2023-09-19T05:55:32;16.60;99.90
20815;DHT22;10568;48.176;16.316;2023-09-19T05:57:58;16.60;99.90
20815;DHT22;10568;48.176;16.316;2023-09-19T06:00:24;16.60;99.90
20815;DHT22;10568;48.176;16.316;2023-09-19T06:02:56;16.60;99.90
20815;DHT22;10568;48.176;16.316;2023-09-19T06:05:23;16.60;99.90
20815;DHT22;10568;48.176;16.316;2023-09-19T06:07:49;16.70;99.90
20815;DHT22;10568;48.176;16.316;2023-09-19T06:10:16;16.70;99.90
20815;DHT22;10568;48.176;16.316;2023-09-19T06:12:43;16.70;99.90
20815;DHT22;10568;48.176;16.316;2023-09-19T06:15:09;16.70;99.90
20815;DHT22;10568;48.176;16.316;2023-09-19T06:17:49;16.80;99.90
20815;DHT22;10568;48.176;16.316;2023-09-19T06:20:15;16.80;99.90
20815;DHT22;10568;48.176;16.316;2023-09-19T06:22:42;16.90;99.90
20815;DHT22;10568;48.176;16.316;2023-09-19T06:25:13;16.90;99.90
20815;DHT22;10568;48.176;16.316;2023-09-19T06:27:47;16.90;99.90
20815;DHT22;10568;48.176;16.316;2023-09-19T06:30:13;17.00;99.90
20815;DHT22;10568;48.176;16.316;2023-09-19T06:32:43;17.10;99.90
20815;DHT22;10568;48.176;16.316;2023-09-19T06:35:14;17.20;99.90
20815;DHT22;10568;48.176;16.316;2023-09-19T06:37:41;17.20;99.90
20815;DHT22;10568;48.176;16.316;2023-09-19T06:40:11;17.30;99.90
20815;DHT22;10568;48.176;16.316;2023-09-19T06:42:41;17.30;99.90
20815;DHT22;10568;48.176;16.316;2023-09-19T06:45:08;17.40;99.90
20815;DHT22;10568;48.176;16.316;2023-09-19T06:47:34;17.40;99.90
20815;DHT22;10568;48.176;16.316;2023-09-19T06:49:59;17.40;99.90
20815;DHT22;10568;48.176;16.316;2023-09-19T06:52:28;17.40;99.90
20815;DHT22;10568;48.176;16.316;2023-09-19T06:54:53;17.50;99.90
20815;DHT22;10568;48.176;16.316;2023-09-19T06:57:19;17.50;99.90
20815;DHT22;10568;48.176;16.316;2023-09-19T06:59:45;17.60;99.90
20815;DHT22;10568;48.176;16.316;2023-09-19T07:02:11;17.60;99.90
20815;DHT22;10568;48.176;16.316;2023-09-19T07:04:37;17.60;99.90
20815;DHT22;10568;48.176;16.316;2023-09-19T07:07:03;17.70;99.90
20815;DHT22;10568;48.176;16.316;2023-09-19T07:09:29;17.70;99.90
20815;DHT22;10568;48.176;16.316;2023-09-19T07:11:54;17.70;99.90
20815;DHT22;10568;48.176;16.316;2023-09-19T07:14:20;17.80;99.90
20815;DHT22;10568;48.176;16.316;2023-09-19T07:16:46;17.70;99.90
20815;DHT22;10568;48.176;16.316;2023-09-19T07:19:13;17.70;99.90
20815;DHT22;10568;48.176;16.316;2023-09-19T07:21:40;17.80;99.90
20815;DHT22;10568;48.176;16.316;2023-09-19T07:24:07;17.70;99.90
20815;DHT22;10568;48.176;16.316;2023-09-19T07:26:33;17.80;99.90
20815;DHT22;10568;48.176;16.316;2023-09-19T07:29:00;17.80;99.90
20815;DHT22;10568;48.176;16.316;2023-09-19T07:31:29;17.80;99.90
20815;DHT22;10568;48.176;16.316;2023-09-19T07:33:56;17.80;99.90
20815;DHT22;10568;48.176;16.316;2023-09-19T07:36:22;17.80;99.90
20815;DHT22;10568;48.176;16.316;2023-09-19T07:38:49;17.80;99.90
20815;DHT22;10568;48.176;16.316;2023-09-19T07:41:15;17.80;99.90
20815;DHT22;10568;48.176;16.316;2023-09-19T07:43:41;17.80;99.90
20815;DHT22;10568;48.176;16.316;2023-09-19T07:46:07;17.90;99.90
20815;DHT22;10568;48.176;16.316;2023-09-19T07:48:35;18.00;99.90
20815;DHT22;10568;48.176;16.316;2023-09-19T07:51:06;18.00;99.90
20815;DHT22;10568;48.176;16.316;2023-09-19T07:53:33;18.20;99.90
20815;DHT22;10568;48.176;16.316;2023-09-19T07:56:07;18.30;99.90
20815;DHT22;10568;48.176;16.316;2023-09-19T07:58:33;18.50;99.90
20815;DHT22;10568;48.176;16.316;2023-09-19T08:01:10;18.60;99.90
20815;DHT22;10568;48.176;16.316;2023-09-19T08:03:36;18.60;99.90
20815;DHT22;10568;48.176;16.316;2023-09-19T08:06:09;18.70;99.90
20815;DHT22;10568;48.176;16.316;2023-09-19T08:08:36;18.90;99.90
20815;DHT22;10568;48.176;16.316;2023-09-19T08:11:06;18.90;99.90
20815;DHT22;10568;48.176;16.316;2023-09-19T08:13:39;19.00;99.90
20815;DHT22;10568;48.176;16.316;2023-09-19T08:16:11;19.10;99.90
20815;DHT22;10568;48.176;16.316;2023-09-19T08:18:37;19.10;99.90
20815;DHT22;10568;48.176;16.316;2023-09-19T08:21:07;19.20;99.90
20815;DHT22;10568;48.176;16.316;2023-09-19T08:23:39;19.20;99.90
20815;DHT22;10568;48.176;16.316;2023-09-19T08:26:05;19.20;99.90
20815;DHT22;10568;48.176;16.316;2023-09-19T08:28:37;19.30;99.90
20815;DHT22;10568;48.176;16.316;2023-09-19T08:31:07;19.50;99.90
20815;DHT22;10568;48.176;16.316;2023-09-19T08:33:34;19.50;99.90
20815;DHT22;10568;48.176;16.316;2023-09-19T08:36:04;19.50;99.90
20815;DHT22;10568;48.176;16.316;2023-09-19T08:38:34;19.50;99.90
20815;DHT22;10568;48.176;16.316;2023-09-19T08:41:04;19.40;99.90
20815;DHT22;10568;48.176;16.316;2023-09-19T08:43:30;19.40;99.90
20815;DHT22;10568;48.176;16.316;2023-09-19T08:46:13;19.40;99.90
20815;DHT22;10568;48.176;16.316;2023-09-19T08:48:46;19.20;99.90
20815;DHT22;10568;48.176;16.316;2023-09-19T08:51:40;19.20;99.90
20815;DHT22;10568;48.176;16.316;2023-09-19T08:54:18;19.20;99.90
20815;DHT22;10568;48.176;16.316;2023-09-19T08:56:51;19.20;99.90
20815;DHT22;10568;48.176;16.316;2023-09-19T08:59:21;19.30;99.90
20815;DHT22;10568;48.176;16.316;2023-09-19T09:01:49;19.40;99.90
20815;DHT22;10568;48.176;16.316;2023-09-19T09:04:19;19.40;99.90
20815;DHT22;10568;48.176;16.316;2023-09-19T09:06:46;19.40;99.90
20815;DHT22;10568;48.176;16.316;2023-09-19T09:09:18;19.40;99.90
20815;DHT22;10568;48.176;16.316;2023-09-19T09:11:45;19.40;99.90
20815;DHT22;10568;48.176;16.316;2023-09-19T09:14:14;19.50;99.90
20815;DHT22;10568;48.176;16.316;2023-09-19T09:16:39;19.40;99.90
20815;DHT22;10568;48.176;16.316;2023-09-19T09:19:05;19.50;99.90
20815;DHT22;10568;48.176;16.316;2023-09-19T09:21:31;19.50;99.90
20815;DHT22;10568;48.176;16.316;2023-09-19T09:24:26;19.50;99.90
20815;DHT22;10568;48.176;16.316;2023-09-19T09:26:54;19.50;99.90
20815;DHT22;10568;48.176;16.316;2023-09-19T09:29:41;19.60;99.90
20815;DHT22;10568;48.176;16.316;2023-09-19T09:32:26;19.80;99.90
20815;DHT22;10568;48.176;16.316;2023-09-19T09:34:56;19.90;99.90
20815;DHT22;10568;48.176;16.316;2023-09-19T09:37:23;20.10;99.90
20815;DHT22;10568;48.176;16.316;2023-09-19T09:39:54;20.40;99.90
20815;DHT22;10568;48.176;16.316;2023-09-19T09:42:35;20.60;99.90
20815;DHT22;10568;48.176;16.316;2023-09-19T09:45:21;20.70;99.90
20815;DHT22;10568;48.176;16.316;2023-09-19T09:48:00;21.00;99.90
20815;DHT22;10568;48.176;16.316;2023-09-19T09:50:36;21.50;99.90
20815;DHT22;10568;48.176;16.316;2023-09-19T09:53:20;21.90;99.90
20815;DHT22;10568;48.176;16.316;2023-09-19T09:56:09;22.00;99.90
20815;DHT22;10568;48.176;16.316;2023-09-19T09:58:50;22.20;99.90
20815;DHT22;10568;48.176;16.316;2023-09-19T10:01:17;22.00;99.90
20815;DHT22;10568;48.176;16.316;2023-09-19T10:03:44;22.30;99.90
20815;DHT22;10568;48.176;16.316;2023-09-19T10:06:15;22.30;99.90
20815;DHT22;10568;48.176;16.316;2023-09-19T10:09:06;22.30;99.90
20815;DHT22;10568;48.176;16.316;2023-09-19T10:11:40;22.40;99.90
20815;DHT22;10568;48.176;16.316;2023-09-19T10:14:09;22.40;99.90
20815;DHT22;10568;48.176;16.316;2023-09-19T10:16:36;22.60;99.90
20815;DHT22;10568;48.176;16.316;2023-09-19T10:19:08;22.80;99.90
20815;DHT22;10568;48.176;16.316;2023-09-19T10:21:36;22.90;99.90
20815;DHT22;10568;48.176;16.316;2023-09-19T10:24:08;23.20;99.90
20815;DHT22;10568;48.176;16.316;2023-09-19T10:26:36;23.60;99.90
20815;DHT22;10568;48.176;16.316;2023-09-19T10:29:07;23.80;99.90
20815;DHT22;10568;48.176;16.316;2023-09-19T10:31:34;24.20;99.90
20815;DHT22;10568;48.176;16.316;2023-09-19T10:34:03;24.40;99.90
20815;DHT22;10568;48.176;16.316;2023-09-19T10:36:33;24.50;99.90
20815;DHT22;10568;48.176;16.316;2023-09-19T10:39:02;24.90;99.90
20815;DHT22;10568;48.176;16.316;2023-09-19T10:41:34;25.10;99.90
20815;DHT22;10568;48.176;16.316;2023-09-19T10:44:04;25.20;99.90
20815;DHT22;10568;48.176;16.316;2023-09-19T10:46:32;25.40;99.90
20815;DHT22;10568;48.176;16.316;2023-09-19T10:49:00;25.50;99.90
20815;DHT22;10568;48.176;16.316;2023-09-19T10:51:33;25.70;99.90
20815;DHT22;10568;48.176;16.316;2023-09-19T10:54:12;25.70;99.90
20815;DHT22;10568;48.176;16.316;2023-09-19T10:56:43;25.70;99.90
20815;DHT22;10568;48.176;16.316;2023-09-19T10:59:16;25.20;99.90
20815;DHT22;10568;48.176;16.316;2023-09-19T11:01:46;25.60;99.90
20815;DHT22;10568;48.176;16.316;2023-09-19T11:04:35;25.60;99.90
20815;DHT22;10568;48.176;16.316;2023-09-19T11:07:09;25.70;99.90
20815;DHT22;10568;48.176;16.316;2023-09-19T11:09:50;25.90;99.90
20815;DHT22;10568;48.176;16.316;2023-09-19T11:15:04;25.70;99.90
20815;DHT22;10568;48.176;16.316;2023-09-19T11:30:47;26.00;99.90
20815;DHT22;10568;48.176;16.316;2023-09-19T11:33:20;26.20;99.90
20815;DHT22;10568;48.176;16.316;2023-09-19T11:46:55;26.60;99.90
20815;DHT22;10568;48.176;16.316;2023-09-19T11:49:31;26.50;99.90
20815;DHT22;10568;48.176;16.316;2023-09-19T11:52:02;26.60;99.90
20815;DHT22;10568;48.176;16.316;2023-09-19T11:54:35;26.40;99.90
20815;DHT22;10568;48.176;16.316;2023-09-19T11:57:04;26.50;99.90
20815;DHT22;10568;48.176;16.316;2023-09-19T11:59:30;26.60;99.90
20815;DHT22;10568;48.176;16.316;2023-09-19T12:02:07;26.70;99.90
20815;DHT22;10568;48.176;16.316;2023-09-19T12:04:41;26.60;99.90
20815;DHT22;10568;48.176;16.316;2023-09-19T12:09:45;26.80;99.90
20815;DHT22;10568;48.176;16.316;2023-09-19T12:12:24;27.00;99.90
20815;DHT22;10568;48.176;16.316;2023-09-19T12:14:53;27.30;99.90
20815;DHT22;10568;48.176;16.316;2023-09-19T12:17:20;27.20;99.90
20815;DHT22;10568;48.176;16.316;2023-09-19T12:19:53;27.10;99.90
20815;DHT22;10568;48.176;16.316;2023-09-19T12:22:19;27.10;99.90
20815;DHT22;10568;48.176;16.316;2023-09-19T12:24:48;27.30;99.90
20815;DHT22;10568;48.176;16.316;2023-09-19T12:27:16;27.40;99.90
20815;DHT22;10568;48.176;16.316;2023-09-19T12:29:48;27.50;99.90
20815;DHT22;10568;48.176;16.316;2023-09-19T12:32:14;27.30;99.90
20815;DHT22;10568;48.176;16.316;2023-09-19T12:34:50;27.30;99.90
20815;DHT22;10568;48.176;16.316;2023-09-19T12:37:19;27.30;99.90
20815;DHT22;10568;48.176;16.316;2023-09-19T12:39:54;27.40;99.90
20815;DHT22;10568;48.176;16.316;2023-09-19T12:42:40;27.50;99.90
20815;DHT22;10568;48.176;16.316;2023-09-19T12:45:07;27.40;99.90
20815;DHT22;10568;48.176;16.316;2023-09-19T12:47:35;27.20;99.90
20815;DHT22;10568;48.176;16.316;2023-09-19T12:55:43;27.10;99.90
20815;DHT22;10568;48.176;16.316;2023-09-19T12:58:12;27.00;99.90
20815;DHT22;10568;48.176;16.316;2023-09-19T13:00:43;26.80;99.90
20815;DHT22;10568;48.176;16.316;2023-09-19T13:03:25;26.90;99.90
20815;DHT22;10568;48.176;16.316;2023-09-19T13:05:58;27.10;99.90
20815;DHT22;10568;48.176;16.316;2023-09-19T13:08:48;27.10;99.90
20815;DHT22;10568;48.176;16.316;2023-09-19T13:11:19;27.40;99.90
20815;DHT22;10568;48.176;16.316;2023-09-19T13:13:51;27.40;99.90
20815;DHT22;10568;48.176;16.316;2023-09-19T13:22:50;27.40;99.90
20815;DHT22;10568;48.176;16.316;2023-09-19T13:24:51;27.50;99.90
20815;DHT22;10568;48.176;16.316;2023-09-19T13:27:17;27.40;99.90
20815;DHT22;10568;48.176;16.316;2023-09-19T13:32:51;27.20;99.90
20815;DHT22;10568;48.176;16.316;2023-09-19T13:35:18;26.80;99.90
20815;DHT22;10568;48.176;16.316;2023-09-19T13:37:45;26.80;99.90
20815;DHT22;10568;48.176;16.316;2023-09-19T13:40:15;26.70;99.90
20815;DHT22;10568;48.176;16.316;2023-09-19T13:42:42;26.80;99.90
20815;DHT22;10568;48.176;16.316;2023-09-19T13:45:08;26.80;99.90
20815;DHT22;10568;48.176;16.316;2023-09-19T13:47:37;26.90;99.90
20815;DHT22;10568;48.176;16.316;2023-09-19T13:50:04;27.10;99.90
20815;DHT22;10568;48.176;16.316;2023-09-19T13:52:33;27.10;99.90
20815;DHT22;10568;48.176;16.316;2023-09-19T13:54:59;27.40;99.90
20815;DHT22;10568;48.176;16.316;2023-09-19T13:57:25;27.40;99.90
20815;DHT22;10568;48.176;16.316;2023-09-19T13:59:52;27.50;99.90
20815;DHT22;10568;48.176;16.316;2023-09-19T14:02:22;27.50;99.90
20815;DHT22;10568;48.176;16.316;2023-09-19T14:04:49;27.60;99.90
20815;DHT22;10568;48.176;16.316;2023-09-19T14:07:16;27.70;99.90
20815;DHT22;10568;48.176;16.316;2023-09-19T14:09:43;27.30;99.90
20815;DHT22;10568;48.176;16.316;2023-09-19T14:12:09;27.20;99.90
20815;DHT22;10568;48.176;16.316;2023-09-19T14:14:36;27.10;99.90
20815;DHT22;10568;48.176;16.316;2023-09-19T14:17:05;26.80;99.90
20815;DHT22;10568;48.176;16.316;2023-09-19T14:19:33;26.50;99.90
20815;DHT22;10568;48.176;16.316;2023-09-19T14:21:58;26.20;99.90
20815;DHT22;10568;48.176;16.316;2023-09-19T14:24:25;26.00;99.90
20815;DHT22;10568;48.176;16.316;2023-09-19T14:26:51;25.80;99.90
20815;DHT22;10568;48.176;16.316;2023-09-19T14:29:17;25.70;99.90
20815;DHT22;10568;48.176;16.316;2023-09-19T14:31:43;25.50;99.90
20815;DHT22;10568;48.176;16.316;2023-09-19T14:34:09;25.40;99.90
20815;DHT22;10568;48.176;16.316;2023-09-19T14:36:38;25.20;99.90
20815;DHT22;10568;48.176;16.316;2023-09-19T14:39:07;25.10;99.90
20815;DHT22;10568;48.176;16.316;2023-09-19T14:41:34;24.90;99.90
20815;DHT22;10568;48.176;16.316;2023-09-19T14:44:01;24.70;99.90
20815;DHT22;10568;48.176;16.316;2023-09-19T14:46:27;24.50;99.90
20815;DHT22;10568;48.176;16.316;2023-09-19T14:48:54;24.30;99.90
20815;DHT22;10568;48.176;16.316;2023-09-19T14:51:22;24.20;99.90
20815;DHT22;10568;48.176;16.316;2023-09-19T14:53:48;24.00;99.90
20815;DHT22;10568;48.176;16.316;2023-09-19T14:56:14;23.90;99.90
20815;DHT22;10568;48.176;16.316;2023-09-19T14:58:44;23.80;99.90
20815;DHT22;10568;48.176;16.316;2023-09-19T15:01:12;23.70;99.90
20815;DHT22;10568;48.176;16.316;2023-09-19T15:03:39;23.70;99.90
20815;DHT22;10568;48.176;16.316;2023-09-19T15:06:10;23.60;99.90
20815;DHT22;10568;48.176;16.316;2023-09-19T15:08:40;23.40;99.90
20815;DHT22;10568;48.176;16.316;2023-09-19T15:11:11;23.40;99.90
20815;DHT22;10568;48.176;16.316;2023-09-19T15:13:38;23.30;99.90
20815;DHT22;10568;48.176;16.316;2023-09-19T15:16:09;23.10;99.90
20815;DHT22;10568;48.176;16.316;2023-09-19T15:18:36;23.10;99.90
20815;DHT22;10568;48.176;16.316;2023-09-19T15:21:07;23.00;99.90
20815;DHT22;10568;48.176;16.316;2023-09-19T15:23:35;23.00;99.90
20815;DHT22;10568;48.176;16.316;2023-09-19T15:26:13;22.90;99.90
20815;DHT22;10568;48.176;16.316;2023-09-19T15:28:39;22.90;99.90
20815;DHT22;10568;48.176;16.316;2023-09-19T15:31:15;22.80;99.90
20815;DHT22;10568;48.176;16.316;2023-09-19T15:33:41;22.70;99.90
20815;DHT22;10568;48.176;16.316;2023-09-19T15:36:15;22.70;99.90
20815;DHT22;10568;48.176;16.316;2023-09-19T15:41:31;22.60;99.90
20815;DHT22;10568;48.176;16.316;2023-09-19T15:43:59;22.50;99.90
20815;DHT22;10568;48.176;16.316;2023-09-19T15:46:27;22.50;99.90
20815;DHT22;10568;48.176;16.316;2023-09-19T15:48:56;22.40;99.90
20815;DHT22;10568;48.176;16.316;2023-09-19T15:51:23;22.40;99.90
20815;DHT22;10568;48.176;16.316;2023-09-19T15:53:51;22.30;99.90
20815;DHT22;10568;48.176;16.316;2023-09-19T15:59:35;22.10;99.90
20815;DHT22;10568;48.176;16.316;2023-09-19T16:02:01;22.00;99.90
20815;DHT22;10568;48.176;16.316;2023-09-19T16:04:28;22.00;99.90
20815;DHT22;10568;48.176;16.316;2023-09-19T16:06:54;22.00;99.90
20815;DHT22;10568;48.176;16.316;2023-09-19T16:09:20;22.00;99.90
20815;DHT22;10568;48.176;16.316;2023-09-19T16:11:46;21.90;99.90
20815;DHT22;10568;48.176;16.316;2023-09-19T16:14:33;21.80;99.90
20815;DHT22;10568;48.176;16.316;2023-09-19T16:16:59;21.70;99.90
20815;DHT22;10568;48.176;16.316;2023-09-19T16:19:27;21.60;99.90
20815;DHT22;10568;48.176;16.316;2023-09-19T16:21:53;21.50;99.90
20815;DHT22;10568;48.176;16.316;2023-09-19T16:24:21;21.50;99.90
20815;DHT22;10568;48.176;16.316;2023-09-19T16:26:47;21.40;99.90
20815;DHT22;10568;48.176;16.316;2023-09-19T16:29:14;21.30;99.90
20815;DHT22;10568;48.176;16.316;2023-09-19T16:31:41;21.30;99.90
20815;DHT22;10568;48.176;16.316;2023-09-19T16:34:07;21.10;99.90
20815;DHT22;10568;48.176;16.316;2023-09-19T16:36:34;21.10;99.90
20815;DHT22;10568;48.176;16.316;2023-09-19T16:39:00;21.00;99.90
20815;DHT22;10568;48.176;16.316;2023-09-19T16:41:26;20.90;99.90